Time;durP1;ratioP1;P1;durP2;ratioP2;P2;SDS_P1;SDS_P2;PMS_P1;PMS_P2;Temp;Humidity;BMP_temperature;BMP_pressure;BME280_temperature;BME280_humidity;BME280_pressure;Samples;Min_cycle;Max_cycle;Signal;HPM_P1;HPM_P2
2022/06/17 00:00:53;;;;;;;27.07;18.83;;;;;;;;;;4991604;28;20069;-59
2022/06/17 00:03:19;;;;;;;24.57;18.37;;;;;;;;;;4991300;28;20050;-60
2022/06/17 00:05:46;;;;;;;23.80;18.23;;;;;;;;;;4991768;28;20082;-60
2022/06/17 00:08:15;;;;;;;28.30;18.87;;;;;;;;;;4991129;28;20153;-60
2022/06/17 00:10:41;;;;;;;23.53;19.23;;;;;;;;;;4991124;28;20177;-59
2022/06/17 00:13:11;;;;;;;23.37;18.23;;;;;;;;;;4991463;28;20057;-60
2022/06/17 00:15:37;;;;;;;28.50;17.37;;;;;;;;;;4991127;28;20046;-60
2022/06/17 00:18:03;;;;;;;21.50;16.13;;;;;;;;;;4991450;28;20042;-59
2022/06/17 00:20:30;;;;;;;24.07;18.43;;;;;;;;;;4991517;28;20097;-60
2022/06/17 00:22:56;;;;;;;24.70;18.50;;;;;;;;;;4991382;28;20055;-60
2022/06/17 00:25:28;;;;;;;27.13;18.97;;;;;;;;;;4990986;28;20058;-60
2022/06/17 00:27:54;;;;;;;27.37;19.93;;;;;;;;;;4991328;28;20050;-60
2022/06/17 00:30:25;;;;;;;26.77;18.83;;;;;;;;;;4990833;28;20043;-60
2022/06/17 00:32:52;;;;;;;27.27;21.00;;;;;;;;;;4990837;28;20070;-60
2022/06/17 00:35:19;;;;;;;30.00;21.43;;;;;;;;;;4991103;28;20526;-60
2022/06/17 00:37:45;;;;;;;32.20;21.70;;;;;;;;;;4990219;28;20050;-59
2022/06/17 00:40:15;;;;;;;32.67;21.97;;;;;;;;;;4990798;28;20050;-60
2022/06/17 00:42:42;;;;;;;29.33;22.10;;;;;;;;;;4973948;28;20072;-59
2022/06/17 00:45:20;;;;;;;32.57;21.70;;;;;;;;;;4990499;28;20046;-59
2022/06/17 00:47:54;;;;;;;23.33;19.80;;;;;;;;;;4990712;28;20050;-59
2022/06/17 00:50:20;;;;;;;;;;;;;;;;;;4991064;28;20093;-60
2022/06/17 00:52:49;;;;;;;26.67;20.83;;;;;;;;;;4990905;28;19968;-60
2022/06/17 00:55:26;;;;;;;30.30;21.77;;;;;;;;;;4990501;28;20093;-61
2022/06/17 00:57:52;;;;;;;25.13;20.63;;;;;;;;;;4990726;28;20133;-60
2022/06/17 01:00:21;;;;;;;25.20;20.47;;;;;;;;;;4989524;28;20451;-59
2022/06/17 01:02:49;;;;;;;27.90;21.87;;;;;;;;;;4990479;28;20046;-60
2022/06/17 01:05:17;;;;;;;22.90;18.93;;;;;;;;;;4990043;28;20396;-60
2022/06/17 01:07:46;;;;;;;30.33;22.93;;;;;;;;;;4989843;28;20050;-60
2022/06/17 01:10:13;;;;;;;25.57;21.80;;;;;;;;;;4990326;28;20057;-60
2022/06/17 01:12:58;;;;;;;29.37;21.53;;;;;;;;;;4990416;28;20115;-60
2022/06/17 01:15:25;;;;;;;26.00;19.97;;;;;;;;;;4990151;28;20121;-59
2022/06/17 01:17:52;;;;;;;26.60;19.70;;;;;;;;;;4990330;28;20077;-60
2022/06/17 01:20:18;;;;;;;28.50;21.30;;;;;;;;;;4990112;28;20054;-59
2022/06/17 01:22:49;;;;;;;23.87;18.17;;;;;;;;;;4990189;28;20076;-59
2022/06/17 01:25:19;;;;;;;24.63;18.83;;;;;;;;;;4989615;28;20050;-60
2022/06/17 01:27:47;;;;;;;24.73;17.60;;;;;;;;;;4989723;28;20416;-59
2022/06/17 01:30:15;;;;;;;23.30;17.60;;;;;;;;;;4989668;28;20046;-60
2022/06/17 01:32:45;;;;;;;19.47;15.83;;;;;;;;;;4990221;28;20052;-60
2022/06/17 01:35:12;;;;;;;23.63;16.30;;;;;;;;;;4989783;28;20042;-60
2022/06/17 01:37:38;;;;;;;23.43;15.90;;;;;;;;;;4988004;28;20180;-60
2022/06/17 01:40:05;;;;;;;19.97;14.80;;;;;;;;;;4989871;28;20504;-60
2022/06/17 01:42:32;;;;;;;18.27;14.67;;;;;;;;;;4990165;28;20162;-60
2022/06/17 01:44:58;;;;;;;18.57;12.97;;;;;;;;;;4989345;28;20050;-60
2022/06/17 01:47:26;;;;;;;23.10;12.30;;;;;;;;;;4989925;28;20137;-60
2022/06/17 01:49:55;;;;;;;15.90;13.53;;;;;;;;;;4989799;28;20217;-60
2022/06/17 01:52:25;;;;;;;15.00;13.40;;;;;;;;;;4990014;28;20050;-60
2022/06/17 01:54:54;;;;;;;19.47;14.73;;;;;;;;;;4989906;28;20058;-60
2022/06/17 01:57:27;;;;;;;22.43;11.13;;;;;;;;;;4989220;28;20046;-60
2022/06/17 02:00:07;;;;;;;18.58;13.40;;;;;;;;;;4989524;28;20061;-60
2022/06/17 02:02:33;;;;;;;18.13;12.37;;;;;;;;;;4972318;28;20124;-61
2022/06/17 02:05:04;;;;;;;15.20;12.77;;;;;;;;;;4989504;28;20500;-60
2022/06/17 02:07:43;;;;;;;17.50;11.53;;;;;;;;;;4989224;28;20056;-59
2022/06/17 02:10:10;;;;;;;13.73;10.83;;;;;;;;;;4989824;28;20069;-59
2022/06/17 02:12:40;;;;;;;12.30;9.97;;;;;;;;;;4989666;28;20101;-60
2022/06/17 02:15:06;;;;;;;14.73;10.70;;;;;;;;;;4988066;28;20054;-59
2022/06/17 02:17:35;;;;;;;11.43;10.23;;;;;;;;;;4989611;28;20065;-59
2022/06/17 02:20:01;;;;;;;15.80;12.30;;;;;;;;;;4989381;28;20042;-59
2022/06/17 02:22:31;;;;;;;20.20;12.27;;;;;;;;;;4989943;28;20047;-60
2022/06/17 02:24:58;;;;;;;15.90;11.50;;;;;;;;;;4988884;28;20062;-60
2022/06/17 02:27:25;;;;;;;20.73;12.37;;;;;;;;;;4989669;28;20042;-59
2022/06/17 02:29:52;;;;;;;14.30;11.60;;;;;;;;;;4989238;28;20189;-60
2022/06/17 02:32:19;;;;;;;19.37;13.10;;;;;;;;;;4989080;28;20043;-60
2022/06/17 02:34:52;;;;;;;19.07;12.97;;;;;;;;;;4971953;28;20047;-60
2022/06/17 02:37:19;;;;;;;22.27;13.40;;;;;;;;;;4989218;28;20047;-59
2022/06/17 02:39:48;;;;;;;20.03;13.20;;;;;;;;;;4989915;28;20073;-59
2022/06/17 02:42:19;;;;;;;18.13;13.60;;;;;;;;;;4990246;28;20042;-60
2022/06/17 02:44:46;;;;;;;20.27;14.67;;;;;;;;;;4989979;28;20046;-60
2022/06/17 02:47:15;;;;;;;18.73;14.47;;;;;;;;;;4989977;28;20133;-59
2022/06/17 02:49:41;;;;;;;16.13;13.17;;;;;;;;;;4991938;28;20045;-60
2022/06/17 02:52:16;;;;;;;21.07;14.60;;;;;;;;;;4993471;28;20050;-60
2022/06/17 02:54:48;;;;;;;18.63;13.80;;;;;;;;;;4993727;28;20419;-60
2022/06/17 02:57:26;;;;;;;19.87;14.10;;;;;;;;;;4993871;28;20038;-59
2022/06/17 02:59:56;;;;;;;19.00;15.10;;;;;;;;;;4993894;28;20702;-59
2022/06/17 03:02:28;;;;;;;19.63;15.40;;;;;;;;;;4994109;28;20042;-60
2022/06/17 03:04:54;;;;;;;16.37;13.23;;;;;;;;;;4994064;28;20046;-60
2022/06/17 03:07:25;;;;;;;23.47;15.73;;;;;;;;;;4993729;28;20038;-60
2022/06/17 03:09:51;;;;;;;19.27;14.13;;;;;;;;;;4974864;28;20579;-60
2022/06/17 03:12:18;;;;;;;16.90;13.70;;;;;;;;;;4974094;28;20082;-60
2022/06/17 03:14:51;;;;;;;20.63;15.27;;;;;;;;;;4974155;28;20476;-60
2022/06/17 03:17:18;;;;;;;20.90;14.20;;;;;;;;;;4974135;28;20039;-60
2022/06/17 03:19:48;;;;;;;17.83;13.67;;;;;;;;;;4990843;28;20048;-59
2022/06/17 03:22:14;;;;;;;18.70;14.47;;;;;;;;;;4991784;28;20396;-60
2022/06/17 03:24:59;;;;;;;16.77;14.63;;;;;;;;;;4991816;28;20484;-60
2022/06/17 03:27:32;;;;;;;19.37;13.77;;;;;;;;;;4993140;28;20507;-60
2022/06/17 03:29:59;;;;;;;19.20;14.63;;;;;;;;;;4992978;28;20061;-60
2022/06/17 03:32:28;;;;;;;18.30;14.07;;;;;;;;;;4993058;28;20121;-60
2022/06/17 03:34:55;;;;;;;21.20;13.97;;;;;;;;;;4992183;28;20042;-60
2022/06/17 03:37:27;;;;;;;17.87;13.90;;;;;;;;;;4975156;28;20050;-60
2022/06/17 03:40:03;;;;;;;15.10;13.20;;;;;;;;;;4972308;28;20129;-60
2022/06/17 03:42:33;;;;;;;17.13;13.87;;;;;;;;;;4977492;28;20093;-60
2022/06/17 03:45:06;;;;;;;19.63;13.13;;;;;;;;;;4992456;28;20069;-60
2022/06/17 03:47:32;;;;;;;18.20;14.37;;;;;;;;;;4992685;28;20069;-60
2022/06/17 03:50:00;;;;;;;17.70;13.73;;;;;;;;;;4992422;28;20042;-60
2022/06/17 03:52:44;;;;;;;17.40;13.53;;;;;;;;;;4992389;28;20057;-59
2022/06/17 03:55:14;;;;;;;17.50;13.80;;;;;;;;;;4992473;28;20054;-59
2022/06/17 03:57:42;;;;;;;19.87;13.73;;;;;;;;;;4992632;28;20046;-59
2022/06/17 04:00:14;;;;;;;16.73;13.97;;;;;;;;;;4991732;28;20051;-60
2022/06/17 04:02:41;;;;;;;16.90;14.00;;;;;;;;;;4991665;28;20046;-60
2022/06/17 04:05:14;;;;;;;16.53;12.83;;;;;;;;;;4992174;28;20096;-60
2022/06/17 04:07:40;;;;;;;20.23;13.70;;;;;;;;;;4991614;28;20508;-60
2022/06/17 04:10:07;;;;;;;16.43;13.10;;;;;;;;;;4985052;28;20625;-60
2022/06/17 04:12:34;;;;;;;15.80;13.33;;;;;;;;;;4988221;28;20042;-60
2022/06/17 04:15:06;;;;;;;15.80;12.17;;;;;;;;;;4978496;28;20046;-60
2022/06/17 04:17:35;;;;;;;17.27;13.43;;;;;;;;;;4979731;28;20176;-60
2022/06/17 04:20:20;;;;;;;14.77;11.63;;;;;;;;;;4987667;28;20034;-60
2022/06/17 04:22:48;;;;;;;15.30;12.53;;;;;;;;;;4975134;28;20049;-60
2022/06/17 04:25:31;;;;;;;16.50;11.50;;;;;;;;;;4991946;28;20132;-59
2022/06/17 04:28:02;;;;;;;16.10;11.40;;;;;;;;;;4991805;28;20116;-60
2022/06/17 04:30:30;;;;;;;14.43;11.97;;;;;;;;;;4991858;28;20744;-60
2022/06/17 04:32:58;;;;;;;15.63;11.70;;;;;;;;;;4991699;28;20066;-59
2022/06/17 04:35:24;;;;;;;15.57;11.90;;;;;;;;;;4992019;28;20042;-60
2022/06/17 04:37:50;;;;;;;17.23;11.37;;;;;;;;;;4990974;28;20046;-60
2022/06/17 04:40:39;;;;;;;12.53;11.23;;;;;;;;;;4991160;28;20572;-60
2022/06/17 04:43:08;;;;;;;13.73;11.30;;;;;;;;;;4981056;28;20130;-60
2022/06/17 04:45:34;;;;;;;14.20;10.67;;;;;;;;;;4991281;28;20420;-60
2022/06/17 04:48:00;;;;;;;17.33;11.27;;;;;;;;;;4991452;28;20403;-60
2022/06/17 04:50:27;;;;;;;13.47;10.30;;;;;;;;;;4991686;28;20049;-60
2022/06/17 04:52:55;;;;;;;15.00;10.53;;;;;;;;;;4991182;28;20054;-60
2022/06/17 04:55:21;;;;;;;15.20;10.53;;;;;;;;;;4991205;28;20116;-60
2022/06/17 04:57:48;;;;;;;14.00;9.73;;;;;;;;;;4991387;28;20050;-60
2022/06/17 05:00:19;;;;;;;12.67;10.60;;;;;;;;;;4990994;28;20101;-60
2022/06/17 05:02:45;;;;;;;11.53;10.33;;;;;;;;;;4991162;28;20122;-61
2022/06/17 05:05:14;;;;;;;13.57;10.33;;;;;;;;;;4991048;28;20046;-60
2022/06/17 05:07:45;;;;;;;11.93;9.67;;;;;;;;;;4991174;28;20042;-60
2022/06/17 05:10:24;;;;;;;15.40;9.80;;;;;;;;;;4990121;28;20043;-60
2022/06/17 05:12:57;;;;;;;14.87;10.23;;;;;;;;;;4990073;28;20038;-60
2022/06/17 05:15:24;;;;;;;12.70;10.13;;;;;;;;;;4990306;28;20412;-60
2022/06/17 05:17:50;;;;;;;11.60;9.57;;;;;;;;;;4990223;28;20061;-60
2022/06/17 05:20:18;;;;;;;11.73;9.87;;;;;;;;;;4989595;28;20047;-61
2022/06/17 05:22:49;;;;;;;14.57;10.47;;;;;;;;;;4989753;28;20044;-60
2022/06/17 05:25:20;;;;;;;13.03;9.50;;;;;;;;;;4989114;28;20065;-60
2022/06/17 05:27:46;;;;;;;12.27;9.83;;;;;;;;;;4990024;28;20412;-60
2022/06/17 05:30:13;;;;;;;12.50;9.27;;;;;;;;;;4988664;28;20153;-61
2022/06/17 05:32:41;;;;;;;13.73;9.73;;;;;;;;;;4989870;28;20042;-60
2022/06/17 05:35:07;;;;;;;11.57;8.73;;;;;;;;;;4990000;28;20042;-60
2022/06/17 05:37:33;;;;;;;14.53;9.70;;;;;;;;;;4989657;28;20042;-60
2022/06/17 05:39:59;;;;;;;13.27;9.60;;;;;;;;;;4989698;28;20054;-60
2022/06/17 05:42:27;;;;;;;16.17;9.57;;;;;;;;;;4989889;28;20047;-60
2022/06/17 05:44:53;;;;;;;11.43;8.80;;;;;;;;;;4989513;28;20785;-60
2022/06/17 05:47:19;;;;;;;12.33;9.20;;;;;;;;;;4989345;28;20085;-60
2022/06/17 05:49:45;;;;;;;18.47;9.13;;;;;;;;;;4989722;28;20046;-60
2022/06/17 05:52:11;;;;;;;13.23;9.93;;;;;;;;;;4989219;28;20393;-60
2022/06/17 05:54:37;;;;;;;15.57;9.40;;;;;;;;;;4989040;28;20046;-61
2022/06/17 05:57:03;;;;;;;16.50;9.10;;;;;;;;;;4989325;28;20050;-60
2022/06/17 05:59:30;;;;;;;13.43;8.73;;;;;;;;;;4972031;28;20073;-61
2022/06/17 06:01:56;;;;;;;10.20;9.07;;;;;;;;;;4989062;28;20042;-60
2022/06/17 06:04:22;;;;;;;16.10;9.97;;;;;;;;;;4988756;28;20048;-61
2022/06/17 06:06:48;;;;;;;14.93;10.77;;;;;;;;;;4989476;28;20038;-60
2022/06/17 06:09:14;;;;;;;13.97;9.33;;;;;;;;;;4989191;28;20053;-61
2022/06/17 06:11:40;;;;;;;14.43;9.27;;;;;;;;;;4989456;28;20401;-60
2022/06/17 06:14:06;;;;;;;12.57;8.30;;;;;;;;;;4989183;28;20050;-60
2022/06/17 06:16:32;;;;;;;12.10;9.20;;;;;;;;;;4988740;28;20882;-60
2022/06/17 06:18:58;;;;;;;13.53;8.90;;;;;;;;;;4989113;28;20149;-61
2022/06/17 06:21:24;;;;;;;12.77;8.90;;;;;;;;;;4989337;28;20129;-60
2022/06/17 06:23:50;;;;;;;11.43;9.07;;;;;;;;;;4990246;28;20077;-60
2022/06/17 06:26:18;;;;;;;12.10;9.20;;;;;;;;;;4991734;28;20046;-60
2022/06/17 06:28:44;;;;;;;15.20;9.73;;;;;;;;;;4993003;28;20137;-61
2022/06/17 06:31:13;;;;;;;13.33;9.87;;;;;;;;;;4993100;28;20042;-61
2022/06/17 06:33:40;;;;;;;16.10;9.33;;;;;;;;;;4992849;28;20161;-60
2022/06/17 06:36:06;;;;;;;13.23;8.80;;;;;;;;;;4993106;28;20046;-60
2022/06/17 06:38:32;;;;;;;12.67;8.63;;;;;;;;;;4991242;28;20102;-63
2022/06/17 06:40:59;;;;;;;10.47;8.47;;;;;;;;;;4988788;28;20487;-60
2022/06/17 06:43:25;;;;;;;11.90;9.23;;;;;;;;;;4974348;28;20067;-60
2022/06/17 06:45:52;;;;;;;13.97;8.77;;;;;;;;;;4992444;28;20050;-60
2022/06/17 06:48:20;;;;;;;14.77;8.37;;;;;;;;;;4992868;28;20333;-60
2022/06/17 06:50:46;;;;;;;11.57;8.20;;;;;;;;;;4992662;28;20064;-60
2022/06/17 06:53:12;;;;;;;13.33;8.13;;;;;;;;;;4992726;28;20861;-60
2022/06/17 06:55:38;;;;;;;13.80;8.57;;;;;;;;;;4992624;28;20423;-60
2022/06/17 06:58:07;;;;;;;11.63;7.93;;;;;;;;;;4992642;28;20476;-60
2022/06/17 07:00:35;;;;;;;10.60;7.60;;;;;;;;;;4991748;28;20049;-60
2022/06/17 07:03:01;;;;;;;12.63;7.10;;;;;;;;;;4992676;28;20050;-60
2022/06/17 07:05:28;;;;;;;10.70;7.67;;;;;;;;;;4992557;28;20042;-60
2022/06/17 07:07:54;;;;;;;10.43;7.43;;;;;;;;;;4992369;28;20045;-61
2022/06/17 07:10:28;;;;;;;10.57;8.47;;;;;;;;;;4992688;28;20051;-59
2022/06/17 07:12:54;;;;;;;13.33;8.33;;;;;;;;;;4991285;28;20046;-60
2022/06/17 07:15:21;;;;;;;11.63;7.70;;;;;;;;;;4992630;28;20078;-60
2022/06/17 07:17:57;;;;;;;13.63;7.53;;;;;;;;;;4992297;28;20038;-60
2022/06/17 07:20:24;;;;;;;8.97;7.37;;;;;;;;;;4992570;28;20053;-60
2022/06/17 07:22:51;;;;;;;12.33;7.50;;;;;;;;;;4992398;28;20073;-60
2022/06/17 07:25:17;;;;;;;10.87;6.50;;;;;;;;;;4991552;28;20136;-60
2022/06/17 07:27:43;;;;;;;12.23;6.50;;;;;;;;;;4992538;28;20150;-60
2022/06/17 07:30:14;;;;;;;10.10;6.60;;;;;;;;;;4992097;28;20050;-60
2022/06/17 07:32:41;;;;;;;10.27;5.63;;;;;;;;;;4975206;28;20141;-60
2022/06/17 07:35:07;;;;;;;9.87;6.00;;;;;;;;;;4990868;28;20089;-60
2022/06/17 07:40:17;;;;;;;9.20;5.60;;;;;;;;;;4979365;28;20050;-60
2022/06/17 07:42:44;;;;;;;7.60;4.77;;;;;;;;;;4991414;28;20049;-61
2022/06/17 07:45:15;;;;;;;9.03;5.13;;;;;;;;;;4991080;28;20085;-60
2022/06/17 07:47:42;;;;;;;9.03;4.70;;;;;;;;;;4991468;28;20047;-60
2022/06/17 07:50:16;;;;;;;8.53;3.90;;;;;;;;;;4991729;28;20053;-60
2022/06/17 07:52:42;;;;;;;10.17;4.33;;;;;;;;;;4989362;28;20058;-60
2022/06/17 07:55:09;;;;;;;7.90;3.53;;;;;;;;;;4990825;28;20708;-60
2022/06/17 07:57:35;;;;;;;7.27;3.30;;;;;;;;;;4989957;28;20085;-60
2022/06/17 08:00:01;;;;;;;8.33;3.40;;;;;;;;;;4989980;28;20389;-60
2022/06/17 08:02:27;;;;;;;5.75;2.97;;;;;;;;;;4990264;28;20046;-60
2022/06/17 08:04:53;;;;;;;9.43;3.80;;;;;;;;;;4990062;28;20121;-60
2022/06/17 08:07:20;;;;;;;14.60;3.40;;;;;;;;;;4990386;28;20053;-60
2022/06/17 08:09:46;;;;;;;7.68;2.88;;;;;;;;;;4991163;28;20573;-60
2022/06/17 08:12:13;;;;;;;7.82;3.20;;;;;;;;;;4974918;28;20101;-60
2022/06/17 08:14:47;;;;;;;11.52;3.75;;;;;;;;;;4992148;28;20089;-60
2022/06/17 08:17:14;;;;;;;4.90;2.58;;;;;;;;;;4991805;28;20547;-60
2022/06/17 08:19:43;;;;;;;12.05;3.30;;;;;;;;;;4991851;28;20435;-60
2022/06/17 08:22:09;;;;;;;7.90;3.05;;;;;;;;;;4991648;28;20060;-60
2022/06/17 08:24:35;;;;;;;7.03;2.78;;;;;;;;;;4991650;28;20050;-60
2022/06/17 08:27:01;;;;;;;6.53;3.15;;;;;;;;;;4991410;28;20412;-60
2022/06/17 08:29:28;;;;;;;6.00;2.70;;;;;;;;;;4991496;28;20090;-60
2022/06/17 08:31:54;;;;;;;9.07;3.38;;;;;;;;;;4991358;28;20046;-60
2022/06/17 08:34:21;;;;;;;7.18;2.80;;;;;;;;;;4991682;28;20065;-60
2022/06/17 08:36:47;;;;;;;4.40;2.90;;;;;;;;;;4991587;28;20627;-60
2022/06/17 08:39:13;;;;;;;6.25;3.45;;;;;;;;;;4991708;28;20121;-60
2022/06/17 08:41:47;;;;;;;6.60;3.55;;;;;;;;;;4991299;28;20078;-60
2022/06/17 08:44:19;;;;;;;6.97;3.38;;;;;;;;;;4990437;28;20050;-61
2022/06/17 08:46:52;;;;;;;7.20;3.90;;;;;;;;;;4990972;28;20050;-60
2022/06/17 08:49:24;;;;;;;6.70;3.58;;;;;;;;;;4991420;28;20282;-60
2022/06/17 08:51:56;;;;;;;7.47;3.83;;;;;;;;;;4991467;28;20082;-60
2022/06/17 08:54:48;;;;;;;6.28;3.70;;;;;;;;;;4991135;28;20042;-60
2022/06/17 08:57:15;;;;;;;9.25;4.10;;;;;;;;;;4987997;28;20061;-60
2022/06/17 08:59:51;;;;;;;7.57;3.60;;;;;;;;;;4991425;28;20053;-60
2022/06/17 09:02:19;;;;;;;5.72;3.33;;;;;;;;;;4990890;28;20451;-60
2022/06/17 09:04:54;;;;;;;8.07;3.25;;;;;;;;;;4982869;28;20138;-60
2022/06/17 09:07:26;;;;;;;9.02;3.05;;;;;;;;;;4990805;28;20061;-60
2022/06/17 09:09:52;;;;;;;11.35;4.03;;;;;;;;;;4991038;28;20050;-60
2022/06/17 09:12:32;;;;;;;6.78;3.10;;;;;;;;;;4990759;28;20053;-60
2022/06/17 09:15:17;;;;;;;5.95;3.70;;;;;;;;;;4990965;28;20126;-60
2022/06/17 09:17:46;;;;;;;10.88;3.95;;;;;;;;;;4982680;28;20074;-60
2022/06/17 09:20:15;;;;;;;9.43;3.00;;;;;;;;;;4990463;28;20638;-60
2022/06/17 09:22:46;;;;;;;5.90;2.90;;;;;;;;;;4991096;28;20057;-60
2022/06/17 09:25:15;;;;;;;6.22;3.28;;;;;;;;;;4990371;28;20420;-59
2022/06/17 09:27:46;;;;;;;7.78;3.55;;;;;;;;;;4990448;28;20121;-60
2022/06/17 09:30:15;;;;;;;6.03;3.55;;;;;;;;;;4990425;28;20050;-60
2022/06/17 09:32:44;;;;;;;6.78;3.20;;;;;;;;;;4990592;28;20058;-60
2022/06/17 09:35:25;;;;;;;9.05;3.47;;;;;;;;;;4990466;28;20389;-60
2022/06/17 09:37:55;;;;;;;6.05;3.03;;;;;;;;;;4990026;28;20507;-60
2022/06/17 09:40:24;;;;;;;4.85;3.00;;;;;;;;;;4990496;28;20050;-60
2022/06/17 09:42:57;;;;;;;6.03;2.97;;;;;;;;;;4990228;28;20500;-60
2022/06/17 09:45:26;;;;;;;6.07;3.10;;;;;;;;;;4990340;28;20129;-60
2022/06/17 09:47:56;;;;;;;6.28;3.03;;;;;;;;;;4990269;28;20070;-60
2022/06/17 09:50:28;;;;;;;7.05;3.20;;;;;;;;;;4990555;28;20125;-60
2022/06/17 09:52:54;;;;;;;;;;;;;;;;;;4990479;28;20077;-60
2022/06/17 09:55:29;;;;;;;5.90;2.95;;;;;;;;;;4990455;28;19922;-60
2022/06/17 09:57:55;;;;;;;5.78;2.83;;;;;;;;;;4988432;28;20781;-60
2022/06/17 10:00:23;;;;;;;6.22;2.55;;;;;;;;;;4989077;28;20042;-60
2022/06/17 10:02:55;;;;;;;11.02;3.03;;;;;;;;;;4989142;28;20125;-60
2022/06/17 10:05:33;;;;;;;9.30;3.40;;;;;;;;;;4989055;28;20054;-60
2022/06/17 10:08:17;;;;;;;8.35;2.92;;;;;;;;;;4989096;28;20137;-60
2022/06/17 10:10:53;;;;;;;7.95;3.13;;;;;;;;;;4989257;28;20480;-60
2022/06/17 10:13:22;;;;;;;6.75;2.70;;;;;;;;;;4989239;28;20046;-60
2022/06/17 10:19:06;;;;;;;6.70;2.85;;;;;;;;;;4988299;28;20508;-61
2022/06/17 10:21:35;;;;;;;9.00;3.25;;;;;;;;;;4989095;28;20058;-58
2022/06/17 10:24:01;;;;;;;7.30;2.58;;;;;;;;;;4989099;28;20507;-58
2022/06/17 10:26:36;;;;;;;7.93;2.90;;;;;;;;;;4989371;28;20050;-60
2022/06/17 10:29:14;;;;;;;6.15;3.13;;;;;;;;;;4971346;28;20062;-60
2022/06/17 10:31:42;;;;;;;7.80;3.25;;;;;;;;;;4988460;28;20046;-59
2022/06/17 10:34:11;;;;;;;5.78;3.05;;;;;;;;;;4988790;28;20093;-58
2022/06/17 10:36:38;;;;;;;5.40;3.20;;;;;;;;;;4988380;28;20447;-58
2022/06/17 10:39:04;;;;;;;5.38;3.17;;;;;;;;;;4988784;28;20097;-59
2022/06/17 10:41:31;;;;;;;5.47;3.03;;;;;;;;;;4988644;28;20050;-59
2022/06/17 10:43:57;;;;;;;5.53;2.45;;;;;;;;;;4988510;28;20428;-59
2022/06/17 10:46:24;;;;;;;8.38;3.63;;;;;;;;;;4988866;28;20078;-60
2022/06/17 10:49:02;;;;;;;6.05;3.05;;;;;;;;;;4989042;28;20046;-60
2022/06/17 10:51:28;;;;;;;5.57;3.13;;;;;;;;;;4988581;28;20046;-60
2022/06/17 10:53:58;;;;;;;5.82;3.55;;;;;;;;;;4988626;28;20050;-60
2022/06/17 10:56:30;;;;;;;7.13;3.05;;;;;;;;;;4988816;28;20043;-60
2022/06/17 10:58:57;;;;;;;4.40;3.17;;;;;;;;;;4987975;28;20074;-60
2022/06/17 11:01:24;;;;;;;7.38;2.90;;;;;;;;;;4988842;28;20050;-60
2022/06/17 11:04:04;;;;;;;8.23;3.67;;;;;;;;;;4988574;28;20061;-60
2022/06/17 11:06:33;;;;;;;9.18;3.42;;;;;;;;;;4987737;28;20121;-60
2022/06/17 11:09:00;;;;;;;7.43;3.47;;;;;;;;;;4988126;28;20046;-60
2022/06/17 11:14:20;;;;;;;8.00;4.30;;;;;;;;;;4988673;28;20050;-60
2022/06/17 11:16:47;;;;;;;6.32;3.95;;;;;;;;;;4990496;28;20627;-59
2022/06/17 11:19:15;;;;;;;7.38;3.90;;;;;;;;;;4973440;28;20057;-60
2022/06/17 11:21:44;;;;;;;6.07;4.68;;;;;;;;;;4983191;28;20038;-60
2022/06/17 11:24:19;;;;;;;5.57;3.85;;;;;;;;;;4981752;28;20035;-60
2022/06/17 11:26:59;;;;;;;7.53;3.85;;;;;;;;;;4998207;28;20038;-60
2022/06/17 11:29:34;;;;;;;6.70;3.85;;;;;;;;;;4991653;28;20042;-61
2022/06/17 11:32:12;;;;;;;9.35;4.32;;;;;;;;;;4991495;28;20046;-60
2022/06/17 11:34:46;;;;;;;7.97;3.60;;;;;;;;;;4990941;28;20516;-60
2022/06/17 11:37:17;;;;;;;5.47;3.38;;;;;;;;;;4990939;28;20133;-60
2022/06/17 11:39:44;;;;;;;8.98;3.45;;;;;;;;;;4983904;28;20047;-60
2022/06/17 11:42:18;;;;;;;5.95;3.38;;;;;;;;;;4997041;28;20057;-60
2022/06/17 11:45:04;;;;;;;4.65;3.67;;;;;;;;;;4988414;28;20136;-60
2022/06/17 11:47:31;;;;;;;4.63;2.95;;;;;;;;;;4971203;28;20039;-60
2022/06/17 11:49:59;;;;;;;5.20;3.00;;;;;;;;;;4978243;28;20046;-60
2022/06/17 11:52:27;;;;;;;6.30;2.72;;;;;;;;;;4974133;28;20051;-60
2022/06/17 11:54:54;;;;;;;11.20;2.97;;;;;;;;;;4990989;28;20043;-60
2022/06/17 11:57:25;;;;;;;8.30;3.50;;;;;;;;;;4991322;28;20046;-60
2022/06/17 11:59:52;;;;;;;7.22;2.90;;;;;;;;;;4991850;28;20081;-60
2022/06/17 12:02:19;;;;;;;5.07;2.97;;;;;;;;;;4990887;28;20591;-60
2022/06/17 12:04:49;;;;;;;6.40;2.70;;;;;;;;;;4990799;28;20508;-60
2022/06/17 12:07:31;;;;;;;7.07;2.75;;;;;;;;;;4991776;28;20046;-60
2022/06/17 12:10:02;;;;;;;4.05;2.63;;;;;;;;;;4989180;28;20129;-60
2022/06/17 12:12:29;;;;;;;4.18;2.42;;;;;;;;;;4990042;28;20082;-60
2022/06/17 12:15:01;;;;;;;5.40;3.22;;;;;;;;;;4970266;28;20061;-60
2022/06/17 12:17:27;;;;;;;6.32;2.90;;;;;;;;;;4971779;28;20038;-60
2022/06/17 12:19:54;;;;;;;4.45;2.72;;;;;;;;;;4988165;28;20790;-62
2022/06/17 12:22:22;;;;;;;7.20;2.72;;;;;;;;;;4990209;28;20054;-59
2022/06/17 12:24:48;;;;;;;7.63;2.85;;;;;;;;;;4991018;28;20081;-60
2022/06/17 12:27:29;;;;;;;5.50;2.65;;;;;;;;;;4990827;28;20117;-60
2022/06/17 12:29:55;;;;;;;5.00;2.90;;;;;;;;;;4990572;28;20154;-60
2022/06/17 12:32:26;;;;;;;5.00;2.92;;;;;;;;;;4990535;28;20042;-60
2022/06/17 12:34:58;;;;;;;4.07;2.80;;;;;;;;;;4989807;28;20058;-60
2022/06/17 12:37:33;;;;;;;8.40;2.75;;;;;;;;;;4990685;28;20568;-60
2022/06/17 12:40:08;;;;;;;5.60;2.67;;;;;;;;;;4972636;28;20490;-60
2022/06/17 12:42:37;;;;;;;7.35;2.90;;;;;;;;;;4990184;28;20045;-60
2022/06/17 12:45:14;;;;;;;8.15;2.63;;;;;;;;;;4990341;28;20049;-60
2022/06/17 12:47:42;;;;;;;3.88;2.30;;;;;;;;;;4989655;28;20070;-60
2022/06/17 12:53:14;;;;;;;3.70;2.42;;;;;;;;;;4990385;28;20054;-60
2022/06/17 12:55:46;;;;;;;7.75;2.90;;;;;;;;;;4989621;28;20133;-60
2022/06/17 12:58:28;;;;;;;7.18;2.67;;;;;;;;;;4988883;28;20061;-60
2022/06/17 13:01:00;;;;;;;6.55;3.10;;;;;;;;;;4989891;28;20046;-59
2022/06/17 13:03:49;;;;;;;7.00;2.50;;;;;;;;;;4990097;28;20117;-61
2022/06/17 13:06:20;;;;;;;5.47;2.67;;;;;;;;;;4989934;28;20042;-60
2022/06/17 13:08:59;;;;;;;9.18;2.83;;;;;;;;;;4990287;28;20101;-60
2022/06/17 13:11:45;;;;;;;5.97;2.83;;;;;;;;;;4989441;28;20116;-61
2022/06/17 13:14:11;;;;;;;5.72;2.42;;;;;;;;;;4989037;28;20108;-60
2022/06/17 13:16:41;;;;;;;5.88;2.60;;;;;;;;;;4989496;28;20042;-61
2022/06/17 13:19:25;;;;;;;7.03;2.75;;;;;;;;;;4989697;28;20046;-60
2022/06/17 13:21:51;;;;;;;4.10;2.40;;;;;;;;;;4989835;28;20039;-60
2022/06/17 13:24:22;;;;;;;5.47;2.88;;;;;;;;;;4989415;28;20069;-60
2022/06/17 13:26:51;;;;;;;4.10;2.30;;;;;;;;;;4989573;28;20125;-61
2022/06/17 13:29:20;;;;;;;4.25;2.47;;;;;;;;;;4989175;28;20112;-61
2022/06/17 13:32:21;;;;;;;4.95;2.67;;;;;;;;;;4988184;28;20488;-61
2022/06/17 13:34:59;;;;;;;5.18;2.28;;;;;;;;;;4929189;29;20051;-61
2022/06/17 13:37:34;;;;;;;6.93;2.30;;;;;;;;;;4981986;28;20058;-61
2022/06/17 13:40:13;;;;;;;6.45;2.13;;;;;;;;;;4988924;28;20579;-60
2022/06/17 13:42:40;;;;;;;5.88;2.90;;;;;;;;;;4989166;28;20133;-61
2022/06/17 13:45:17;;;;;;;5.55;2.80;;;;;;;;;;4989014;28;20513;-61
2022/06/17 13:48:02;;;;;;;7.72;2.50;;;;;;;;;;4972024;28;20500;-61
2022/06/17 13:50:41;;;;;;;3.35;2.05;;;;;;;;;;4989300;28;20141;-61
2022/06/17 13:53:07;;;;;;;6.25;2.28;;;;;;;;;;4988782;28;20050;-61
2022/06/17 13:55:38;;;;;;;9.77;2.88;;;;;;;;;;4989079;28;20042;-61
2022/06/17 13:58:23;;;;;;;5.60;2.10;;;;;;;;;;4989361;28;20053;-61
2022/06/17 14:00:54;;;;;;;12.40;3.63;;;;;;;;;;4988894;28;20508;-61
2022/06/17 14:03:21;;;;;;;6.20;2.33;;;;;;;;;;4988505;28;20104;-61
2022/06/17 14:05:53;;;;;;;8.88;2.90;;;;;;;;;;4988881;28;20435;-60
2022/06/17 14:08:42;;;;;;;6.72;2.13;;;;;;;;;;4989342;28;20050;-61
2022/06/17 14:14:13;;;;;;;8.38;2.13;;;;;;;;;;4989688;28;20054;-61
2022/06/17 14:16:43;;;;;;;14.90;3.03;;;;;;;;;;4989333;28;20109;-60
2022/06/17 14:19:15;;;;;;;4.60;2.15;;;;;;;;;;4989228;28;20054;-60
2022/06/17 14:21:52;;;;;;;4.38;2.25;;;;;;;;;;4990154;28;20089;-61
2022/06/17 14:24:36;;;;;;;4.82;2.03;;;;;;;;;;4988968;28;20057;-61
2022/06/17 14:27:02;;;;;;;7.30;1.90;;;;;;;;;;4990035;28;20043;-61
2022/06/17 14:32:51;;;;;;;5.10;2.03;;;;;;;;;;4989461;28;20050;-61
2022/06/17 14:35:17;;;;;;;;;;;;;;;;;;4989966;28;20051;-61
2022/06/17 14:37:47;;;;;;;7.03;2.47;;;;;;;;;;4989988;28;19975;-61
2022/06/17 14:43:48;;;;;;;2.90;1.77;;;;;;;;;;4989022;28;20145;-61
2022/06/17 14:46:17;;;;;;;;;;;;;;;;;;4992968;28;20057;-61
2022/06/17 14:48:50;;;;;;;7.75;2.10;;;;;;;;;;4993152;28;19921;-61
2022/06/17 14:51:30;;;;;;;5.05;1.88;;;;;;;;;;4992825;28;20181;-61
2022/06/17 15:03:53;;;;;;;3.80;1.80;;;;;;;;;;4992356;28;20045;-61
2022/06/17 15:06:19;;;;;;;7.30;1.90;;;;;;;;;;4993044;28;20404;-61
2022/06/17 15:08:46;;;;;;;3.30;1.80;;;;;;;;;;4992927;28;20097;-61
2022/06/17 15:11:18;;;;;;;3.83;1.70;;;;;;;;;;4991712;28;20061;-61
2022/06/17 15:14:19;;;;;;;5.50;1.67;;;;;;;;;;4993028;28;20535;-61
2022/06/17 15:16:54;;;;;;;5.80;2.20;;;;;;;;;;4951170;29;20053;-61
2022/06/17 15:19:22;;;;;;;2.90;1.85;;;;;;;;;;4986474;28;20294;-61
2022/06/17 15:31:39;;;;;;;2.85;1.83;;;;;;;;;;4992425;28;20061;-60